sensor_id;sensor_type;location;lat;lon;timestamp;P1;durP1;ratioP1;P2;durP2;ratioP2
22254;SDS011;11296;42.684;23.322;2022-07-05T00:02:12;4.63;;;3.17;;
22254;SDS011;11296;42.684;23.322;2022-07-05T00:04:37;4.33;;;3.23;;
22254;SDS011;11296;42.684;23.322;2022-07-05T00:07:03;4.93;;;3.27;;
22254;SDS011;11296;42.684;23.322;2022-07-05T00:09:47;7.33;;;3.30;;
22254;SDS011;11296;42.684;23.322;2022-07-05T00:12:13;5.83;;;3.30;;
22254;SDS011;11296;42.684;23.322;2022-07-05T00:14:39;5.63;;;3.10;;
22254;SDS011;11296;42.684;23.322;2022-07-05T00:17:05;5.40;;;2.90;;
22254;SDS011;11296;42.684;23.322;2022-07-05T00:19:30;6.23;;;3.27;;
22254;SDS011;11296;42.684;23.322;2022-07-05T00:21:56;3.20;;;2.83;;
22254;SDS011;11296;42.684;23.322;2022-07-05T00:24:22;7.03;;;3.60;;
22254;SDS011;11296;42.684;23.322;2022-07-05T00:26:48;4.47;;;3.20;;
22254;SDS011;11296;42.684;23.322;2022-07-05T00:29:13;3.47;;;3.10;;
22254;SDS011;11296;42.684;23.322;2022-07-05T00:31:39;5.07;;;3.30;;
22254;SDS011;11296;42.684;23.322;2022-07-05T00:34:04;3.60;;;2.87;;
22254;SDS011;11296;42.684;23.322;2022-07-05T00:36:30;5.03;;;3.00;;
22254;SDS011;11296;42.684;23.322;2022-07-05T00:38:55;7.63;;;3.20;;
22254;SDS011;11296;42.684;23.322;2022-07-05T00:41:20;5.30;;;2.90;;
22254;SDS011;11296;42.684;23.322;2022-07-05T00:43:53;5.77;;;3.10;;
22254;SDS011;11296;42.684;23.322;2022-07-05T00:46:18;4.33;;;2.87;;
22254;SDS011;11296;42.684;23.322;2022-07-05T00:48:44;7.73;;;3.10;;
22254;SDS011;11296;42.684;23.322;2022-07-05T00:51:09;3.80;;;3.00;;
22254;SDS011;11296;42.684;23.322;2022-07-05T00:53:35;6.60;;;2.90;;
22254;SDS011;11296;42.684;23.322;2022-07-05T00:56:00;6.03;;;3.30;;
22254;SDS011;11296;42.684;23.322;2022-07-05T00:58:26;3.50;;;2.63;;
22254;SDS011;11296;42.684;23.322;2022-07-05T01:00:52;3.57;;;2.70;;
22254;SDS011;11296;42.684;23.322;2022-07-05T01:03:18;6.37;;;3.00;;
22254;SDS011;11296;42.684;23.322;2022-07-05T01:05:43;5.03;;;2.70;;
22254;SDS011;11296;42.684;23.322;2022-07-05T01:08:09;3.57;;;2.70;;
22254;SDS011;11296;42.684;23.322;2022-07-05T01:10:35;6.67;;;3.10;;
22254;SDS011;11296;42.684;23.322;2022-07-05T01:13:01;4.37;;;3.00;;
22254;SDS011;11296;42.684;23.322;2022-07-05T01:15:28;4.10;;;2.70;;
22254;SDS011;11296;42.684;23.322;2022-07-05T01:17:53;5.20;;;2.83;;
22254;SDS011;11296;42.684;23.322;2022-07-05T01:20:19;7.20;;;2.83;;
22254;SDS011;11296;42.684;23.322;2022-07-05T01:22:53;4.83;;;2.87;;
22254;SDS011;11296;42.684;23.322;2022-07-05T01:25:20;4.73;;;2.60;;
22254;SDS011;11296;42.684;23.322;2022-07-05T01:27:46;5.83;;;2.60;;
22254;SDS011;11296;42.684;23.322;2022-07-05T01:30:11;6.27;;;2.67;;
22254;SDS011;11296;42.684;23.322;2022-07-05T01:32:37;4.13;;;2.47;;
22254;SDS011;11296;42.684;23.322;2022-07-05T01:35:03;5.43;;;2.70;;
22254;SDS011;11296;42.684;23.322;2022-07-05T01:37:29;3.70;;;2.77;;
22254;SDS011;11296;42.684;23.322;2022-07-05T01:39:54;5.53;;;2.50;;
22254;SDS011;11296;42.684;23.322;2022-07-05T01:42:20;5.00;;;2.67;;
22254;SDS011;11296;42.684;23.322;2022-07-05T01:44:47;5.80;;;2.50;;
22254;SDS011;11296;42.684;23.322;2022-07-05T01:47:13;4.93;;;2.60;;
22254;SDS011;11296;42.684;23.322;2022-07-05T01:49:41;4.50;;;2.77;;
22254;SDS011;11296;42.684;23.322;2022-07-05T01:52:09;4.27;;;2.40;;
22254;SDS011;11296;42.684;23.322;2022-07-05T01:54:35;4.27;;;2.60;;
22254;SDS011;11296;42.684;23.322;2022-07-05T01:57:01;6.03;;;2.87;;
22254;SDS011;11296;42.684;23.322;2022-07-05T01:59:27;5.67;;;2.80;;
22254;SDS011;11296;42.684;23.322;2022-07-05T02:01:52;2.97;;;2.37;;
22254;SDS011;11296;42.684;23.322;2022-07-05T02:04:18;4.80;;;2.50;;
22254;SDS011;11296;42.684;23.322;2022-07-05T02:06:44;5.17;;;2.87;;
22254;SDS011;11296;42.684;23.322;2022-07-05T02:09:11;3.60;;;2.57;;
22254;SDS011;11296;42.684;23.322;2022-07-05T02:11:36;3.77;;;2.63;;
22254;SDS011;11296;42.684;23.322;2022-07-05T02:14:03;4.97;;;2.80;;
22254;SDS011;11296;42.684;23.322;2022-07-05T02:16:32;3.73;;;2.63;;
22254;SDS011;11296;42.684;23.322;2022-07-05T02:18:58;4.43;;;2.60;;
22254;SDS011;11296;42.684;23.322;2022-07-05T02:21:25;5.07;;;2.40;;
22254;SDS011;11296;42.684;23.322;2022-07-05T02:23:53;4.07;;;2.10;;
22254;SDS011;11296;42.684;23.322;2022-07-05T02:26:21;6.07;;;2.57;;
22254;SDS011;11296;42.684;23.322;2022-07-05T02:28:48;3.63;;;2.80;;
22254;SDS011;11296;42.684;23.322;2022-07-05T02:31:14;4.50;;;2.50;;
22254;SDS011;11296;42.684;23.322;2022-07-05T02:33:42;4.00;;;2.30;;
22254;SDS011;11296;42.684;23.322;2022-07-05T02:36:08;4.43;;;2.50;;
22254;SDS011;11296;42.684;23.322;2022-07-05T02:38:34;6.10;;;2.53;;
22254;SDS011;11296;42.684;23.322;2022-07-05T02:41:00;5.10;;;2.50;;
22254;SDS011;11296;42.684;23.322;2022-07-05T02:43:26;2.30;;;2.10;;
22254;SDS011;11296;42.684;23.322;2022-07-05T02:45:52;3.33;;;2.57;;
22254;SDS011;11296;42.684;23.322;2022-07-05T02:48:17;5.30;;;2.70;;
22254;SDS011;11296;42.684;23.322;2022-07-05T02:50:43;6.63;;;2.60;;
22254;SDS011;11296;42.684;23.322;2022-07-05T02:53:09;6.97;;;2.53;;
22254;SDS011;11296;42.684;23.322;2022-07-05T02:55:35;5.87;;;2.87;;
22254;SDS011;11296;42.684;23.322;2022-07-05T02:58:02;4.77;;;3.17;;
22254;SDS011;11296;42.684;23.322;2022-07-05T03:00:30;6.73;;;3.30;;
22254;SDS011;11296;42.684;23.322;2022-07-05T03:02:56;7.23;;;3.67;;
22254;SDS011;11296;42.684;23.322;2022-07-05T03:05:24;8.63;;;3.33;;
22254;SDS011;11296;42.684;23.322;2022-07-05T03:07:55;8.33;;;3.40;;
22254;SDS011;11296;42.684;23.322;2022-07-05T03:10:23;7.07;;;4.00;;
22254;SDS011;11296;42.684;23.322;2022-07-05T03:12:52;4.43;;;3.80;;
22254;SDS011;11296;42.684;23.322;2022-07-05T03:15:18;4.93;;;4.43;;
22254;SDS011;11296;42.684;23.322;2022-07-05T03:17:43;6.50;;;4.67;;
22254;SDS011;11296;42.684;23.322;2022-07-05T03:20:10;7.70;;;4.90;;
22254;SDS011;11296;42.684;23.322;2022-07-05T03:22:35;8.77;;;4.80;;
22254;SDS011;11296;42.684;23.322;2022-07-05T03:25:02;10.43;;;5.73;;
22254;SDS011;11296;42.684;23.322;2022-07-05T03:27:30;10.73;;;5.47;;
22254;SDS011;11296;42.684;23.322;2022-07-05T03:29:57;8.43;;;5.13;;
22254;SDS011;11296;42.684;23.322;2022-07-05T03:32:23;9.47;;;5.23;;
22254;SDS011;11296;42.684;23.322;2022-07-05T03:34:50;7.33;;;5.10;;
22254;SDS011;11296;42.684;23.322;2022-07-05T03:37:17;8.23;;;5.27;;
22254;SDS011;11296;42.684;23.322;2022-07-05T03:39:42;7.33;;;4.70;;
22254;SDS011;11296;42.684;23.322;2022-07-05T03:42:09;7.80;;;4.97;;
22254;SDS011;11296;42.684;23.322;2022-07-05T03:44:34;8.70;;;5.00;;
22254;SDS011;11296;42.684;23.322;2022-07-05T03:47:02;8.17;;;5.60;;
22254;SDS011;11296;42.684;23.322;2022-07-05T03:49:28;7.57;;;5.17;;
22254;SDS011;11296;42.684;23.322;2022-07-05T03:51:54;8.63;;;5.00;;
22254;SDS011;11296;42.684;23.322;2022-07-05T03:54:20;7.00;;;4.70;;
22254;SDS011;11296;42.684;23.322;2022-07-05T03:56:45;7.83;;;4.67;;
22254;SDS011;11296;42.684;23.322;2022-07-05T03:59:12;7.67;;;4.90;;
22254;SDS011;11296;42.684;23.322;2022-07-05T04:01:38;6.03;;;4.77;;
22254;SDS011;11296;42.684;23.322;2022-07-05T04:04:05;7.67;;;4.23;;
22254;SDS011;11296;42.684;23.322;2022-07-05T04:06:31;6.23;;;4.60;;
22254;SDS011;11296;42.684;23.322;2022-07-05T04:08:59;7.77;;;4.90;;
22254;SDS011;11296;42.684;23.322;2022-07-05T04:11:25;9.27;;;4.63;;
22254;SDS011;11296;42.684;23.322;2022-07-05T04:13:52;10.40;;;5.13;;
22254;SDS011;11296;42.684;23.322;2022-07-05T04:16:18;8.50;;;4.77;;
22254;SDS011;11296;42.684;23.322;2022-07-05T04:18:43;6.77;;;4.70;;
22254;SDS011;11296;42.684;23.322;2022-07-05T04:21:09;5.80;;;4.70;;
22254;SDS011;11296;42.684;23.322;2022-07-05T04:23:34;5.37;;;4.67;;
22254;SDS011;11296;42.684;23.322;2022-07-05T04:26:01;7.27;;;4.83;;
22254;SDS011;11296;42.684;23.322;2022-07-05T04:28:34;6.47;;;4.70;;
22254;SDS011;11296;42.684;23.322;2022-07-05T04:31:02;9.30;;;4.77;;
22254;SDS011;11296;42.684;23.322;2022-07-05T04:33:31;8.30;;;5.10;;
22254;SDS011;11296;42.684;23.322;2022-07-05T04:35:57;7.43;;;5.60;;
22254;SDS011;11296;42.684;23.322;2022-07-05T04:38:23;8.80;;;5.50;;
22254;SDS011;11296;42.684;23.322;2022-07-05T04:40:49;10.47;;;5.17;;
22254;SDS011;11296;42.684;23.322;2022-07-05T04:43:15;11.07;;;5.40;;
22254;SDS011;11296;42.684;23.322;2022-07-05T04:45:40;8.70;;;5.17;;
22254;SDS011;11296;42.684;23.322;2022-07-05T04:48:06;7.63;;;5.30;;
22254;SDS011;11296;42.684;23.322;2022-07-05T04:50:34;7.30;;;5.03;;
22254;SDS011;11296;42.684;23.322;2022-07-05T04:53:00;9.77;;;5.60;;
22254;SDS011;11296;42.684;23.322;2022-07-05T04:55:25;9.80;;;6.03;;
22254;SDS011;11296;42.684;23.322;2022-07-05T04:57:51;7.33;;;5.60;;
22254;SDS011;11296;42.684;23.322;2022-07-05T05:00:16;11.93;;;5.40;;
22254;SDS011;11296;42.684;23.322;2022-07-05T05:02:42;11.13;;;5.23;;
22254;SDS011;11296;42.684;23.322;2022-07-05T05:05:07;6.63;;;5.13;;
22254;SDS011;11296;42.684;23.322;2022-07-05T05:07:33;8.30;;;5.30;;
22254;SDS011;11296;42.684;23.322;2022-07-05T05:09:59;9.30;;;5.60;;
22254;SDS011;11296;42.684;23.322;2022-07-05T05:12:25;11.77;;;5.90;;
22254;SDS011;11296;42.684;23.322;2022-07-05T05:14:51;11.83;;;5.93;;
22254;SDS011;11296;42.684;23.322;2022-07-05T05:17:16;8.47;;;5.63;;
22254;SDS011;11296;42.684;23.322;2022-07-05T05:19:42;8.50;;;5.70;;
22254;SDS011;11296;42.684;23.322;2022-07-05T05:22:08;7.33;;;5.43;;
22254;SDS011;11296;42.684;23.322;2022-07-05T05:24:33;9.03;;;5.30;;
22254;SDS011;11296;42.684;23.322;2022-07-05T05:27:02;8.07;;;5.83;;
22254;SDS011;11296;42.684;23.322;2022-07-05T05:29:28;10.10;;;5.83;;
22254;SDS011;11296;42.684;23.322;2022-07-05T05:31:54;10.50;;;5.73;;
22254;SDS011;11296;42.684;23.322;2022-07-05T05:34:20;10.87;;;6.30;;
22254;SDS011;11296;42.684;23.322;2022-07-05T05:36:45;10.27;;;5.83;;
22254;SDS011;11296;42.684;23.322;2022-07-05T05:39:12;11.30;;;5.83;;
22254;SDS011;11296;42.684;23.322;2022-07-05T05:41:37;7.20;;;5.30;;
22254;SDS011;11296;42.684;23.322;2022-07-05T05:44:03;7.40;;;4.97;;
22254;SDS011;11296;42.684;23.322;2022-07-05T05:46:28;6.47;;;5.87;;
22254;SDS011;11296;42.684;23.322;2022-07-05T05:48:54;8.90;;;5.30;;
22254;SDS011;11296;42.684;23.322;2022-07-05T05:51:19;10.43;;;5.33;;
22254;SDS011;11296;42.684;23.322;2022-07-05T05:53:45;10.40;;;5.63;;
22254;SDS011;11296;42.684;23.322;2022-07-05T05:56:11;8.10;;;5.50;;
22254;SDS011;11296;42.684;23.322;2022-07-05T05:58:36;11.20;;;5.60;;
22254;SDS011;11296;42.684;23.322;2022-07-05T06:01:02;9.03;;;5.57;;
22254;SDS011;11296;42.684;23.322;2022-07-05T06:03:28;8.27;;;5.60;;
22254;SDS011;11296;42.684;23.322;2022-07-05T06:05:53;11.23;;;5.77;;
22254;SDS011;11296;42.684;23.322;2022-07-05T06:08:19;10.97;;;5.77;;
22254;SDS011;11296;42.684;23.322;2022-07-05T06:10:44;8.93;;;5.73;;
22254;SDS011;11296;42.684;23.322;2022-07-05T06:13:11;10.97;;;6.37;;
22254;SDS011;11296;42.684;23.322;2022-07-05T06:15:36;8.27;;;6.30;;
22254;SDS011;11296;42.684;23.322;2022-07-05T06:18:02;10.37;;;5.83;;
22254;SDS011;11296;42.684;23.322;2022-07-05T06:20:29;8.10;;;5.80;;
22254;SDS011;11296;42.684;23.322;2022-07-05T06:22:56;10.57;;;6.23;;
22254;SDS011;11296;42.684;23.322;2022-07-05T06:25:22;9.87;;;5.90;;
22254;SDS011;11296;42.684;23.322;2022-07-05T06:27:48;9.47;;;5.77;;
22254;SDS011;11296;42.684;23.322;2022-07-05T06:30:15;6.27;;;5.33;;
22254;SDS011;11296;42.684;23.322;2022-07-05T06:32:41;8.27;;;6.00;;
22254;SDS011;11296;42.684;23.322;2022-07-05T06:35:07;6.93;;;5.70;;
22254;SDS011;11296;42.684;23.322;2022-07-05T06:38:03;9.00;;;5.90;;
22254;SDS011;11296;42.684;23.322;2022-07-05T06:40:30;18.20;;;7.00;;
22254;SDS011;11296;42.684;23.322;2022-07-05T06:43:00;14.23;;;6.20;;
22254;SDS011;11296;42.684;23.322;2022-07-05T06:45:38;9.27;;;5.97;;
22254;SDS011;11296;42.684;23.322;2022-07-05T06:48:04;10.80;;;5.77;;
22254;SDS011;11296;42.684;23.322;2022-07-05T06:50:31;7.00;;;5.50;;
22254;SDS011;11296;42.684;23.322;2022-07-05T06:52:57;12.32;;;6.72;;
22254;SDS011;11296;42.684;23.322;2022-07-05T06:55:23;10.82;;;5.57;;
22254;SDS011;11296;42.684;23.322;2022-07-05T06:57:49;11.65;;;5.57;;
22254;SDS011;11296;42.684;23.322;2022-07-05T07:00:26;7.63;;;4.88;;
22254;SDS011;11296;42.684;23.322;2022-07-05T07:02:52;8.85;;;5.22;;
22254;SDS011;11296;42.684;23.322;2022-07-05T07:05:18;9.73;;;5.63;;
22254;SDS011;11296;42.684;23.322;2022-07-05T07:07:44;6.85;;;5.30;;
22254;SDS011;11296;42.684;23.322;2022-07-05T07:10:28;8.57;;;4.90;;
22254;SDS011;11296;42.684;23.322;2022-07-05T07:12:53;9.15;;;5.30;;
22254;SDS011;11296;42.684;23.322;2022-07-05T07:15:19;10.13;;;5.20;;
22254;SDS011;11296;42.684;23.322;2022-07-05T07:17:45;10.07;;;5.32;;
22254;SDS011;11296;42.684;23.322;2022-07-05T07:20:10;13.13;;;6.20;;
22254;SDS011;11296;42.684;23.322;2022-07-05T07:22:36;7.22;;;5.57;;
22254;SDS011;11296;42.684;23.322;2022-07-05T07:25:02;12.13;;;6.00;;
22254;SDS011;11296;42.684;23.322;2022-07-05T07:27:28;8.18;;;5.82;;
22254;SDS011;11296;42.684;23.322;2022-07-05T07:29:53;12.43;;;5.93;;
22254;SDS011;11296;42.684;23.322;2022-07-05T07:32:19;10.00;;;5.95;;
22254;SDS011;11296;42.684;23.322;2022-07-05T07:34:44;9.10;;;5.28;;
22254;SDS011;11296;42.684;23.322;2022-07-05T07:37:09;11.00;;;5.93;;
22254;SDS011;11296;42.684;23.322;2022-07-05T07:39:38;7.95;;;5.32;;
22254;SDS011;11296;42.684;23.322;2022-07-05T07:42:08;9.18;;;5.45;;
22254;SDS011;11296;42.684;23.322;2022-07-05T07:44:33;11.15;;;5.35;;
22254;SDS011;11296;42.684;23.322;2022-07-05T07:46:59;11.38;;;6.10;;
22254;SDS011;11296;42.684;23.322;2022-07-05T07:49:24;7.22;;;5.93;;
22254;SDS011;11296;42.684;23.322;2022-07-05T07:51:50;7.35;;;5.22;;
22254;SDS011;11296;42.684;23.322;2022-07-05T07:54:16;10.13;;;5.47;;
22254;SDS011;11296;42.684;23.322;2022-07-05T07:56:42;8.88;;;5.63;;
22254;SDS011;11296;42.684;23.322;2022-07-05T07:59:07;9.40;;;5.20;;
22254;SDS011;11296;42.684;23.322;2022-07-05T08:01:33;8.48;;;5.43;;
22254;SDS011;11296;42.684;23.322;2022-07-05T08:03:58;9.65;;;5.50;;
22254;SDS011;11296;42.684;23.322;2022-07-05T08:06:24;8.75;;;5.30;;
22254;SDS011;11296;42.684;23.322;2022-07-05T08:08:49;7.28;;;5.80;;
22254;SDS011;11296;42.684;23.322;2022-07-05T08:11:15;7.65;;;5.35;;
22254;SDS011;11296;42.684;23.322;2022-07-05T08:13:40;8.85;;;5.63;;
22254;SDS011;11296;42.684;23.322;2022-07-05T08:16:09;11.73;;;6.10;;
22254;SDS011;11296;42.684;23.322;2022-07-05T08:18:34;9.18;;;5.40;;
22254;SDS011;11296;42.684;23.322;2022-07-05T08:21:18;10.27;;;5.38;;
22254;SDS011;11296;42.684;23.322;2022-07-05T08:24:00;10.13;;;6.00;;
22254;SDS011;11296;42.684;23.322;2022-07-05T08:26:26;9.45;;;5.90;;
22254;SDS011;11296;42.684;23.322;2022-07-05T08:28:51;11.60;;;5.93;;
22254;SDS011;11296;42.684;23.322;2022-07-05T08:31:17;7.57;;;5.97;;
22254;SDS011;11296;42.684;23.322;2022-07-05T08:33:42;12.93;;;6.07;;
22254;SDS011;11296;42.684;23.322;2022-07-05T08:36:08;10.63;;;5.88;;
22254;SDS011;11296;42.684;23.322;2022-07-05T08:38:33;9.70;;;5.95;;
22254;SDS011;11296;42.684;23.322;2022-07-05T08:40:59;11.50;;;5.97;;
22254;SDS011;11296;42.684;23.322;2022-07-05T08:43:25;10.98;;;5.90;;
22254;SDS011;11296;42.684;23.322;2022-07-05T08:45:53;11.82;;;6.30;;
22254;SDS011;11296;42.684;23.322;2022-07-05T08:48:19;10.45;;;6.13;;
22254;SDS011;11296;42.684;23.322;2022-07-05T08:50:45;11.18;;;6.40;;
22254;SDS011;11296;42.684;23.322;2022-07-05T08:53:22;15.20;;;6.25;;
22254;SDS011;11296;42.684;23.322;2022-07-05T08:55:49;9.65;;;6.13;;
22254;SDS011;11296;42.684;23.322;2022-07-05T08:58:14;7.85;;;5.47;;
22254;SDS011;11296;42.684;23.322;2022-07-05T09:00:40;8.95;;;6.00;;
22254;SDS011;11296;42.684;23.322;2022-07-05T09:03:07;8.40;;;6.10;;
22254;SDS011;11296;42.684;23.322;2022-07-05T09:05:42;14.13;;;6.40;;
22254;SDS011;11296;42.684;23.322;2022-07-05T09:08:08;13.30;;;6.80;;
22254;SDS011;11296;42.684;23.322;2022-07-05T09:10:35;9.30;;;6.15;;
22254;SDS011;11296;42.684;23.322;2022-07-05T09:13:02;9.48;;;6.00;;
22254;SDS011;11296;42.684;23.322;2022-07-05T09:15:27;11.38;;;6.28;;
22254;SDS011;11296;42.684;23.322;2022-07-05T09:17:53;7.88;;;5.53;;
22254;SDS011;11296;42.684;23.322;2022-07-05T09:20:19;8.77;;;5.82;;
22254;SDS011;11296;42.684;23.322;2022-07-05T09:22:46;11.20;;;6.18;;
22254;SDS011;11296;42.684;23.322;2022-07-05T09:25:33;10.18;;;6.18;;
22254;SDS011;11296;42.684;23.322;2022-07-05T09:27:59;10.13;;;6.22;;
22254;SDS011;11296;42.684;23.322;2022-07-05T09:30:35;9.85;;;6.07;;
22254;SDS011;11296;42.684;23.322;2022-07-05T09:33:07;9.57;;;6.10;;
22254;SDS011;11296;42.684;23.322;2022-07-05T09:35:34;8.80;;;6.10;;
22254;SDS011;11296;42.684;23.322;2022-07-05T09:38:00;8.57;;;6.65;;
22254;SDS011;11296;42.684;23.322;2022-07-05T09:40:31;8.93;;;6.53;;
22254;SDS011;11296;42.684;23.322;2022-07-05T09:43:10;8.52;;;6.45;;
22254;SDS011;11296;42.684;23.322;2022-07-05T09:45:36;9.20;;;6.00;;
22254;SDS011;11296;42.684;23.322;2022-07-05T09:48:01;6.80;;;6.10;;
22254;SDS011;11296;42.684;23.322;2022-07-05T09:50:33;7.38;;;6.57;;
22254;SDS011;11296;42.684;23.322;2022-07-05T09:52:59;14.32;;;6.90;;
22254;SDS011;11296;42.684;23.322;2022-07-05T09:55:25;8.35;;;6.57;;
22254;SDS011;11296;42.684;23.322;2022-07-05T09:57:50;9.85;;;6.15;;
22254;SDS011;11296;42.684;23.322;2022-07-05T10:00:18;7.50;;;6.80;;
22254;SDS011;11296;42.684;23.322;2022-07-05T10:02:45;7.07;;;6.35;;
22254;SDS011;11296;42.684;23.322;2022-07-05T10:05:11;7.40;;;6.38;;
22254;SDS011;11296;42.684;23.322;2022-07-05T10:07:41;10.52;;;7.60;;
22254;SDS011;11296;42.684;23.322;2022-07-05T10:10:13;9.27;;;7.97;;
22254;SDS011;11296;42.684;23.322;2022-07-05T10:12:40;11.93;;;8.80;;
22254;SDS011;11296;42.684;23.322;2022-07-05T10:15:08;9.23;;;8.32;;
22254;SDS011;11296;42.684;23.322;2022-07-05T10:17:35;11.25;;;10.25;;
22254;SDS011;11296;42.684;23.322;2022-07-05T10:20:08;12.60;;;8.85;;
22254;SDS011;11296;42.684;23.322;2022-07-05T10:22:36;10.30;;;8.23;;
22254;SDS011;11296;42.684;23.322;2022-07-05T10:25:01;9.73;;;8.65;;
22254;SDS011;11296;42.684;23.322;2022-07-05T10:27:27;17.77;;;9.48;;
22254;SDS011;11296;42.684;23.322;2022-07-05T10:29:54;10.05;;;9.07;;
22254;SDS011;11296;42.684;23.322;2022-07-05T10:32:22;10.30;;;9.20;;
22254;SDS011;11296;42.684;23.322;2022-07-05T10:34:47;10.05;;;9.13;;
22254;SDS011;11296;42.684;23.322;2022-07-05T10:37:16;9.27;;;8.57;;
22254;SDS011;11296;42.684;23.322;2022-07-05T10:39:42;10.02;;;9.05;;
22254;SDS011;11296;42.684;23.322;2022-07-05T10:42:08;9.45;;;8.57;;
22254;SDS011;11296;42.684;23.322;2022-07-05T10:44:34;11.75;;;9.23;;
22254;SDS011;11296;42.684;23.322;2022-07-05T10:47:09;9.55;;;8.18;;
22254;SDS011;11296;42.684;23.322;2022-07-05T10:49:36;9.98;;;9.10;;
22254;SDS011;11296;42.684;23.322;2022-07-05T10:52:03;9.38;;;8.48;;
22254;SDS011;11296;42.684;23.322;2022-07-05T10:54:28;12.77;;;8.65;;
22254;SDS011;11296;42.684;23.322;2022-07-05T11:02:55;9.77;;;8.98;;
22254;SDS011;11296;42.684;23.322;2022-07-05T11:05:30;9.68;;;8.85;;
22254;SDS011;11296;42.684;23.322;2022-07-05T11:08:00;12.75;;;8.50;;
22254;SDS011;11296;42.684;23.322;2022-07-05T11:10:25;9.18;;;8.43;;
22254;SDS011;11296;42.684;23.322;2022-07-05T11:12:51;10.43;;;9.32;;
22254;SDS011;11296;42.684;23.322;2022-07-05T11:15:16;10.07;;;9.20;;
22254;SDS011;11296;42.684;23.322;2022-07-05T11:17:42;10.15;;;8.38;;
22254;SDS011;11296;42.684;23.322;2022-07-05T11:23:04;10.10;;;9.20;;
22254;SDS011;11296;42.684;23.322;2022-07-05T11:25:30;13.45;;;10.93;;
22254;SDS011;11296;42.684;23.322;2022-07-05T11:28:00;13.80;;;8.60;;
22254;SDS011;11296;42.684;23.322;2022-07-05T11:30:25;10.57;;;8.73;;
22254;SDS011;11296;42.684;23.322;2022-07-05T11:32:51;9.40;;;8.65;;
22254;SDS011;11296;42.684;23.322;2022-07-05T11:35:17;9.18;;;8.27;;
22254;SDS011;11296;42.684;23.322;2022-07-05T11:40:28;10.52;;;9.23;;
22254;SDS011;11296;42.684;23.322;2022-07-05T11:42:54;9.82;;;8.93;;
22254;SDS011;11296;42.684;23.322;2022-07-05T11:45:19;9.57;;;8.73;;
22254;SDS011;11296;42.684;23.322;2022-07-05T11:47:45;9.40;;;8.65;;
22254;SDS011;11296;42.684;23.322;2022-07-05T11:50:10;10.30;;;9.30;;
22254;SDS011;11296;42.684;23.322;2022-07-05T11:52:36;10.02;;;8.95;;
22254;SDS011;11296;42.684;23.322;2022-07-05T11:55:03;9.88;;;8.68;;
22254;SDS011;11296;42.684;23.322;2022-07-05T11:57:29;8.95;;;8.25;;
22254;SDS011;11296;42.684;23.322;2022-07-05T11:59:55;9.38;;;8.57;;
22254;SDS011;11296;42.684;23.322;2022-07-05T12:02:20;9.93;;;8.80;;
22254;SDS011;11296;42.684;23.322;2022-07-05T12:04:49;9.90;;;9.02;;
22254;SDS011;11296;42.684;23.322;2022-07-05T12:07:26;12.35;;;8.55;;
22254;SDS011;11296;42.684;23.322;2022-07-05T12:09:51;10.27;;;9.38;;
22254;SDS011;11296;42.684;23.322;2022-07-05T12:12:35;9.68;;;8.88;;
22254;SDS011;11296;42.684;23.322;2022-07-05T12:15:11;10.18;;;9.38;;
22254;SDS011;11296;42.684;23.322;2022-07-05T12:17:37;9.85;;;8.95;;
22254;SDS011;11296;42.684;23.322;2022-07-05T12:20:03;9.85;;;9.05;;
22254;SDS011;11296;42.684;23.322;2022-07-05T12:24:54;9.15;;;8.30;;
22254;SDS011;11296;42.684;23.322;2022-07-05T12:27:20;9.77;;;9.00;;
22254;SDS011;11296;42.684;23.322;2022-07-05T12:29:46;10.35;;;9.13;;
22254;SDS011;11296;42.684;23.322;2022-07-05T12:32:11;10.18;;;9.38;;
22254;SDS011;11296;42.684;23.322;2022-07-05T12:34:37;10.05;;;9.05;;
22254;SDS011;11296;42.684;23.322;2022-07-05T12:37:02;9.93;;;9.05;;
22254;SDS011;11296;42.684;23.322;2022-07-05T12:39:28;10.45;;;9.48;;
22254;SDS011;11296;42.684;23.322;2022-07-05T12:41:53;9.93;;;8.63;;
22254;SDS011;11296;42.684;23.322;2022-07-05T12:44:21;9.57;;;8.88;;
22254;SDS011;11296;42.684;23.322;2022-07-05T12:46:46;10.13;;;9.25;;
22254;SDS011;11296;42.684;23.322;2022-07-05T12:49:14;10.25;;;9.40;;
22254;SDS011;11296;42.684;23.322;2022-07-05T12:51:40;9.65;;;8.75;;
22254;SDS011;11296;42.684;23.322;2022-07-05T12:54:06;10.20;;;9.30;;
22254;SDS011;11296;42.684;23.322;2022-07-05T12:56:50;9.93;;;9.00;;
22254;SDS011;11296;42.684;23.322;2022-07-05T12:59:35;10.45;;;9.60;;
22254;SDS011;11296;42.684;23.322;2022-07-05T13:02:00;11.00;;;10.05;;
22254;SDS011;11296;42.684;23.322;2022-07-05T13:04:26;9.27;;;8.48;;
22254;SDS011;11296;42.684;23.322;2022-07-05T13:06:52;9.48;;;8.65;;
22254;SDS011;11296;42.684;23.322;2022-07-05T13:09:34;10.93;;;9.00;;
22254;SDS011;11296;42.684;23.322;2022-07-05T13:14:40;12.80;;;9.30;;
22254;SDS011;11296;42.684;23.322;2022-07-05T13:17:07;10.20;;;9.10;;
22254;SDS011;11296;42.684;23.322;2022-07-05T13:19:33;10.65;;;9.25;;
22254;SDS011;11296;42.684;23.322;2022-07-05T13:21:59;15.32;;;9.77;;
22254;SDS011;11296;42.684;23.322;2022-07-05T13:24:24;9.27;;;8.48;;
22254;SDS011;11296;42.684;23.322;2022-07-05T13:26:50;10.10;;;9.20;;
22254;SDS011;11296;42.684;23.322;2022-07-05T13:29:15;10.00;;;9.10;;
22254;SDS011;11296;42.684;23.322;2022-07-05T13:31:40;9.98;;;9.07;;
22254;SDS011;11296;42.684;23.322;2022-07-05T13:34:07;10.13;;;9.20;;
22254;SDS011;11296;42.684;23.322;2022-07-05T13:36:32;9.93;;;8.98;;
22254;SDS011;11296;42.684;23.322;2022-07-05T13:38:57;9.75;;;9.05;;
22254;SDS011;11296;42.684;23.322;2022-07-05T13:41:23;9.90;;;9.20;;
22254;SDS011;11296;42.684;23.322;2022-07-05T13:43:49;10.45;;;9.65;;
22254;SDS011;11296;42.684;23.322;2022-07-05T13:46:14;10.20;;;9.30;;
22254;SDS011;11296;42.684;23.322;2022-07-05T13:48:40;10.23;;;9.43;;
22254;SDS011;11296;42.684;23.322;2022-07-05T13:51:05;10.00;;;9.05;;
22254;SDS011;11296;42.684;23.322;2022-07-05T13:53:31;9.85;;;9.02;;
22254;SDS011;11296;42.684;23.322;2022-07-05T13:55:56;9.75;;;8.93;;
22254;SDS011;11296;42.684;23.322;2022-07-05T13:58:22;12.10;;;9.32;;
22254;SDS011;11296;42.684;23.322;2022-07-05T14:00:47;10.48;;;9.48;;
22254;SDS011;11296;42.684;23.322;2022-07-05T14:03:13;10.13;;;9.15;;
22254;SDS011;11296;42.684;23.322;2022-07-05T14:05:40;10.10;;;9.18;;
22254;SDS011;11296;42.684;23.322;2022-07-05T14:08:06;12.80;;;9.73;;
22254;SDS011;11296;42.684;23.322;2022-07-05T14:10:31;9.57;;;8.88;;
22254;SDS011;11296;42.684;23.322;2022-07-05T14:12:57;9.85;;;8.80;;
22254;SDS011;11296;42.684;23.322;2022-07-05T14:15:22;9.73;;;8.95;;
22254;SDS011;11296;42.684;23.322;2022-07-05T14:17:47;10.15;;;9.10;;
22254;SDS011;11296;42.684;23.322;2022-07-05T14:20:13;10.07;;;9.18;;
22254;SDS011;11296;42.684;23.322;2022-07-05T14:22:39;9.15;;;8.55;;
22254;SDS011;11296;42.684;23.322;2022-07-05T14:25:04;9.75;;;8.80;;
22254;SDS011;11296;42.684;23.322;2022-07-05T14:27:30;10.80;;;9.80;;
22254;SDS011;11296;42.684;23.322;2022-07-05T14:29:57;10.32;;;8.95;;
22254;SDS011;11296;42.684;23.322;2022-07-05T14:32:22;9.75;;;8.77;;
22254;SDS011;11296;42.684;23.322;2022-07-05T14:34:48;9.90;;;9.02;;
22254;SDS011;11296;42.684;23.322;2022-07-05T14:37:13;9.82;;;8.93;;
22254;SDS011;11296;42.684;23.322;2022-07-05T14:39:40;9.52;;;8.68;;
22254;SDS011;11296;42.684;23.322;2022-07-05T14:42:05;10.57;;;9.07;;
22254;SDS011;11296;42.684;23.322;2022-07-05T14:44:31;11.77;;;9.30;;
22254;SDS011;11296;42.684;23.322;2022-07-05T14:46:56;9.80;;;8.80;;